createdAt,value
2019-05-17T00:00:57.324Z,9.58
2019-05-17T00:01:57.706Z,9.58
2019-05-17T00:02:57.237Z,9.59
2019-05-17T00:03:57.411Z,9.59
2019-05-17T00:04:58.904Z,9.59
2019-05-17T00:05:59.294Z,9.59
2019-05-17T00:06:59.813Z,9.58
2019-05-17T00:08:00.325Z,9.58
2019-05-17T00:09:00.767Z,9.58
2019-05-17T00:10:01.268Z,9.57
2019-05-17T00:11:01.670Z,9.57
2019-05-17T00:12:02.179Z,9.57
2019-05-17T00:13:02.792Z,9.57
2019-05-17T00:14:03.308Z,9.56
2019-05-17T00:15:03.738Z,9.56
2019-05-17T00:16:04.287Z,9.56
2019-05-17T00:17:06.484Z,9.56
2019-05-17T00:18:03.744Z,9.56
2019-05-17T00:19:07.536Z,9.55
2019-05-17T00:20:06.278Z,9.55
2019-05-17T00:21:07.677Z,9.54
2019-05-17T00:22:07.298Z,9.54
2019-05-17T00:23:07.258Z,9.53
2019-05-17T00:24:06.863Z,9.53
2019-05-17T00:25:07.567Z,9.53
2019-05-17T00:26:07.669Z,9.52
2019-05-17T00:27:09.625Z,9.51
2019-05-17T00:28:09.799Z,9.51
2019-05-17T00:29:10.624Z,9.50
2019-05-17T00:30:11.072Z,9.50
2019-05-17T00:31:11.572Z,9.50
2019-05-17T00:32:12.318Z,9.49
2019-05-17T00:32:20.857Z,9.45
2019-05-17T00:33:22.657Z,9.45
2019-05-17T00:34:23.393Z,9.44
2019-05-17T00:35:26.790Z,9.44
2019-05-17T00:36:24.017Z,9.44
2019-05-17T00:37:26.458Z,9.44
2019-05-17T00:38:27.456Z,9.44
2019-05-17T00:39:28.990Z,9.44
2019-05-17T00:40:27.377Z,9.47
2019-05-17T00:41:27.677Z,9.44
2019-05-17T00:42:28.177Z,9.44
2019-05-17T00:43:28.791Z,9.44
2019-05-17T00:44:29.683Z,9.44
2019-05-17T00:45:30.199Z,9.44
2019-05-17T00:46:30.699Z,9.44
2019-05-17T00:47:31.143Z,9.44
2019-05-17T00:48:31.642Z,9.44
2019-05-17T00:49:32.366Z,9.44
2019-05-17T00:50:32.863Z,9.44
2019-05-17T00:51:33.296Z,9.44
2019-05-17T00:52:33.747Z,9.44
2019-05-17T00:53:36.173Z,9.44
2019-05-17T00:54:33.563Z,9.44
2019-05-17T00:55:36.276Z,9.44
2019-05-17T00:56:34.496Z,9.44
2019-05-17T00:57:36.963Z,9.44
2019-05-17T00:58:37.042Z,9.45
2019-05-17T00:59:36.933Z,9.45
2019-05-17T01:00:37.544Z,9.45
2019-05-17T01:01:37.212Z,9.46
2019-05-17T01:02:38.955Z,9.46
2019-05-17T01:03:39.458Z,9.47
2019-05-17T01:04:40.027Z,9.47
2019-05-17T01:05:40.035Z,9.47
2019-05-17T01:06:40.472Z,9.46
2019-05-17T01:07:40.958Z,9.46
2019-05-17T01:08:41.356Z,9.46
2019-05-17T01:09:41.694Z,9.46
2019-05-17T01:10:42.152Z,9.46
2019-05-17T01:11:42.784Z,9.46
2019-05-17T01:12:43.281Z,9.47
2019-05-17T01:13:44.171Z,9.47
2019-05-17T01:14:46.511Z,9.47
2019-05-17T01:15:44.047Z,9.47
2019-05-17T01:16:47.483Z,9.47
2019-05-17T01:17:47.258Z,9.46
2019-05-17T01:18:47.059Z,9.46
2019-05-17T01:19:47.253Z,9.46
2019-05-17T01:20:47.565Z,9.46
2019-05-17T01:21:47.975Z,9.46
2019-05-17T01:22:49.770Z,9.46
2019-05-17T01:23:50.201Z,9.46
2019-05-17T01:24:50.745Z,9.46
2019-05-17T01:25:51.345Z,9.46
2019-05-17T01:26:51.984Z,9.46
2019-05-17T01:27:00.504Z,9.44
2019-05-17T01:28:02.051Z,9.43
2019-05-17T01:29:02.294Z,9.44
2019-05-17T01:30:02.643Z,9.44
2019-05-17T01:31:03.221Z,9.44
2019-05-17T01:32:06.517Z,9.44
2019-05-17T01:33:03.601Z,9.44
2019-05-17T01:34:07.141Z,9.44
2019-05-17T01:35:07.011Z,9.44
2019-05-17T01:36:06.817Z,9.44
2019-05-17T01:37:06.480Z,9.44
2019-05-17T01:38:07.331Z,9.44
2019-05-17T01:39:15.197Z,9.44
2019-05-17T01:40:07.073Z,9.44
2019-05-17T01:41:07.673Z,9.44
2019-05-17T01:42:09.427Z,9.44
2019-05-17T01:43:09.951Z,9.43
2019-05-17T01:44:10.476Z,9.43
2019-05-17T01:45:11.150Z,9.43
2019-05-17T01:46:11.725Z,9.43
2019-05-17T01:47:12.061Z,9.43
2019-05-17T01:48:12.519Z,9.42
2019-05-17T01:49:13.123Z,9.43
2019-05-17T01:50:13.761Z,9.43
2019-05-17T01:51:16.747Z,9.43
2019-05-17T01:52:13.971Z,9.43
